sensor_id;sensor_type;location;lat;lon;timestamp;P1;durP1;ratioP1;P2;durP2;ratioP2
15655;SDS011;7928;43.614;1.456;2023-12-07T00:01:39;15.70;;;10.63;;
15655;SDS011;7928;43.614;1.456;2023-12-07T00:04:06;18.87;;;12.10;;
15655;SDS011;7928;43.614;1.456;2023-12-07T00:06:33;27.73;;;17.13;;
15655;SDS011;7928;43.614;1.456;2023-12-07T00:09:00;20.37;;;13.97;;
15655;SDS011;7928;43.614;1.456;2023-12-07T00:11:27;16.13;;;11.50;;
15655;SDS011;7928;43.614;1.456;2023-12-07T00:13:54;21.40;;;12.33;;
15655;SDS011;7928;43.614;1.456;2023-12-07T00:16:22;18.07;;;12.10;;
15655;SDS011;7928;43.614;1.456;2023-12-07T00:18:49;18.67;;;12.50;;
15655;SDS011;7928;43.614;1.456;2023-12-07T00:21:16;17.20;;;12.17;;
15655;SDS011;7928;43.614;1.456;2023-12-07T00:23:43;14.30;;;10.77;;
15655;SDS011;7928;43.614;1.456;2023-12-07T00:26:10;16.80;;;10.97;;
15655;SDS011;7928;43.614;1.456;2023-12-07T00:28:37;16.27;;;10.23;;
15655;SDS011;7928;43.614;1.456;2023-12-07T00:31:05;17.50;;;9.80;;
15655;SDS011;7928;43.614;1.456;2023-12-07T00:33:34;16.13;;;10.53;;
15655;SDS011;7928;43.614;1.456;2023-12-07T00:36:01;15.53;;;10.83;;
15655;SDS011;7928;43.614;1.456;2023-12-07T00:38:28;18.07;;;11.27;;
15655;SDS011;7928;43.614;1.456;2023-12-07T00:40:57;15.50;;;11.50;;
15655;SDS011;7928;43.614;1.456;2023-12-07T00:43:24;16.80;;;11.40;;
15655;SDS011;7928;43.614;1.456;2023-12-07T00:45:51;20.17;;;11.60;;
15655;SDS011;7928;43.614;1.456;2023-12-07T00:48:18;15.93;;;11.90;;
15655;SDS011;7928;43.614;1.456;2023-12-07T00:50:46;20.83;;;12.00;;
15655;SDS011;7928;43.614;1.456;2023-12-07T00:53:13;18.17;;;11.90;;
15655;SDS011;7928;43.614;1.456;2023-12-07T00:55:40;19.23;;;13.20;;
15655;SDS011;7928;43.614;1.456;2023-12-07T00:58:07;15.90;;;12.03;;
15655;SDS011;7928;43.614;1.456;2023-12-07T01:00:34;19.87;;;12.13;;
15655;SDS011;7928;43.614;1.456;2023-12-07T01:03:02;21.70;;;13.03;;
15655;SDS011;7928;43.614;1.456;2023-12-07T01:05:28;20.07;;;13.33;;
15655;SDS011;7928;43.614;1.456;2023-12-07T01:07:57;19.33;;;12.30;;
15655;SDS011;7928;43.614;1.456;2023-12-07T01:10:24;19.17;;;11.17;;
15655;SDS011;7928;43.614;1.456;2023-12-07T01:12:51;19.47;;;13.00;;
15655;SDS011;7928;43.614;1.456;2023-12-07T01:15:18;17.43;;;12.00;;
15655;SDS011;7928;43.614;1.456;2023-12-07T01:17:45;19.13;;;12.23;;
15655;SDS011;7928;43.614;1.456;2023-12-07T01:20:12;16.80;;;11.83;;
15655;SDS011;7928;43.614;1.456;2023-12-07T01:22:39;18.30;;;11.57;;
15655;SDS011;7928;43.614;1.456;2023-12-07T01:25:08;16.57;;;11.57;;
15655;SDS011;7928;43.614;1.456;2023-12-07T01:27:35;16.77;;;11.17;;
15655;SDS011;7928;43.614;1.456;2023-12-07T01:30:02;16.80;;;12.17;;
15655;SDS011;7928;43.614;1.456;2023-12-07T01:32:30;19.57;;;12.60;;
15655;SDS011;7928;43.614;1.456;2023-12-07T01:34:57;18.07;;;11.80;;
15655;SDS011;7928;43.614;1.456;2023-12-07T01:37:24;18.80;;;10.90;;
15655;SDS011;7928;43.614;1.456;2023-12-07T01:39:52;16.13;;;11.40;;
15655;SDS011;7928;43.614;1.456;2023-12-07T01:42:21;14.23;;;10.63;;
15655;SDS011;7928;43.614;1.456;2023-12-07T01:44:48;16.83;;;11.57;;
15655;SDS011;7928;43.614;1.456;2023-12-07T01:47:15;17.67;;;11.80;;
15655;SDS011;7928;43.614;1.456;2023-12-07T01:49:42;18.50;;;11.13;;
15655;SDS011;7928;43.614;1.456;2023-12-07T01:52:09;15.50;;;10.73;;
15655;SDS011;7928;43.614;1.456;2023-12-07T01:54:37;17.20;;;11.00;;
15655;SDS011;7928;43.614;1.456;2023-12-07T01:57:05;19.07;;;10.87;;
15655;SDS011;7928;43.614;1.456;2023-12-07T01:59:34;19.80;;;12.30;;
15655;SDS011;7928;43.614;1.456;2023-12-07T02:02:01;18.73;;;11.27;;
15655;SDS011;7928;43.614;1.456;2023-12-07T02:04:28;18.53;;;11.40;;
15655;SDS011;7928;43.614;1.456;2023-12-07T02:06:56;17.43;;;10.70;;
15655;SDS011;7928;43.614;1.456;2023-12-07T02:09:24;14.37;;;10.43;;
15655;SDS011;7928;43.614;1.456;2023-12-07T02:11:51;17.07;;;10.53;;
15655;SDS011;7928;43.614;1.456;2023-12-07T02:14:18;18.57;;;10.33;;
15655;SDS011;7928;43.614;1.456;2023-12-07T02:16:47;20.20;;;10.73;;
15655;SDS011;7928;43.614;1.456;2023-12-07T02:19:21;15.47;;;9.60;;
15655;SDS011;7928;43.614;1.456;2023-12-07T02:22:12;14.47;;;9.60;;
15655;SDS011;7928;43.614;1.456;2023-12-07T02:24:45;16.10;;;9.33;;
15655;SDS011;7928;43.614;1.456;2023-12-07T02:27:33;17.37;;;8.73;;
15655;SDS011;7928;43.614;1.456;2023-12-07T02:30:01;14.70;;;9.07;;
15655;SDS011;7928;43.614;1.456;2023-12-07T02:32:29;12.57;;;8.30;;
15655;SDS011;7928;43.614;1.456;2023-12-07T02:34:56;13.90;;;10.00;;
15655;SDS011;7928;43.614;1.456;2023-12-07T02:37:24;18.50;;;10.17;;
15655;SDS011;7928;43.614;1.456;2023-12-07T02:39:54;16.83;;;10.33;;
15655;SDS011;7928;43.614;1.456;2023-12-07T02:42:22;17.10;;;10.97;;
15655;SDS011;7928;43.614;1.456;2023-12-07T02:44:52;13.83;;;9.80;;
15655;SDS011;7928;43.614;1.456;2023-12-07T02:47:20;17.57;;;10.63;;
15655;SDS011;7928;43.614;1.456;2023-12-07T02:49:47;14.90;;;10.17;;
15655;SDS011;7928;43.614;1.456;2023-12-07T02:52:14;15.27;;;10.23;;
15655;SDS011;7928;43.614;1.456;2023-12-07T02:54:41;16.83;;;10.37;;
15655;SDS011;7928;43.614;1.456;2023-12-07T02:57:08;14.17;;;10.43;;
15655;SDS011;7928;43.614;1.456;2023-12-07T02:59:35;16.33;;;9.90;;
15655;SDS011;7928;43.614;1.456;2023-12-07T03:02:03;19.57;;;10.17;;
15655;SDS011;7928;43.614;1.456;2023-12-07T03:04:31;13.93;;;9.20;;
15655;SDS011;7928;43.614;1.456;2023-12-07T03:06:58;15.27;;;9.53;;
15655;SDS011;7928;43.614;1.456;2023-12-07T03:09:25;16.73;;;8.93;;
15655;SDS011;7928;43.614;1.456;2023-12-07T03:11:52;14.40;;;8.17;;
15655;SDS011;7928;43.614;1.456;2023-12-07T03:14:19;11.40;;;7.93;;
15655;SDS011;7928;43.614;1.456;2023-12-07T03:16:46;11.07;;;7.53;;
15655;SDS011;7928;43.614;1.456;2023-12-07T03:19:14;14.33;;;6.73;;
15655;SDS011;7928;43.614;1.456;2023-12-07T03:21:41;10.83;;;7.20;;
15655;SDS011;7928;43.614;1.456;2023-12-07T03:24:09;14.40;;;6.67;;
15655;SDS011;7928;43.614;1.456;2023-12-07T03:26:36;9.73;;;6.50;;
15655;SDS011;7928;43.614;1.456;2023-12-07T03:29:03;14.77;;;7.30;;
15655;SDS011;7928;43.614;1.456;2023-12-07T03:31:30;9.40;;;6.00;;
15655;SDS011;7928;43.614;1.456;2023-12-07T03:33:57;12.10;;;6.70;;
15655;SDS011;7928;43.614;1.456;2023-12-07T03:36:27;14.93;;;6.13;;
15655;SDS011;7928;43.614;1.456;2023-12-07T03:38:54;10.03;;;5.60;;
15655;SDS011;7928;43.614;1.456;2023-12-07T03:41:21;10.07;;;5.53;;
15655;SDS011;7928;43.614;1.456;2023-12-07T03:43:48;10.97;;;5.80;;
15655;SDS011;7928;43.614;1.456;2023-12-07T03:46:15;11.03;;;6.00;;
15655;SDS011;7928;43.614;1.456;2023-12-07T03:48:42;9.63;;;5.30;;
15655;SDS011;7928;43.614;1.456;2023-12-07T03:51:12;10.50;;;4.67;;
15655;SDS011;7928;43.614;1.456;2023-12-07T03:53:41;9.70;;;5.07;;
15655;SDS011;7928;43.614;1.456;2023-12-07T03:56:08;6.83;;;4.10;;
15655;SDS011;7928;43.614;1.456;2023-12-07T03:58:35;7.50;;;4.30;;
15655;SDS011;7928;43.614;1.456;2023-12-07T04:01:03;7.63;;;4.77;;
15655;SDS011;7928;43.614;1.456;2023-12-07T04:03:30;7.00;;;4.00;;
15655;SDS011;7928;43.614;1.456;2023-12-07T04:05:57;6.30;;;3.90;;
15655;SDS011;7928;43.614;1.456;2023-12-07T04:08:23;6.47;;;4.17;;
15655;SDS011;7928;43.614;1.456;2023-12-07T04:10:52;5.50;;;3.20;;
15655;SDS011;7928;43.614;1.456;2023-12-07T04:13:19;8.57;;;3.80;;
15655;SDS011;7928;43.614;1.456;2023-12-07T04:15:46;10.50;;;3.93;;
15655;SDS011;7928;43.614;1.456;2023-12-07T04:18:13;7.50;;;3.90;;
15655;SDS011;7928;43.614;1.456;2023-12-07T04:20:40;6.00;;;3.33;;
15655;SDS011;7928;43.614;1.456;2023-12-07T04:23:07;6.67;;;3.50;;
15655;SDS011;7928;43.614;1.456;2023-12-07T04:25:33;6.63;;;3.60;;
15655;SDS011;7928;43.614;1.456;2023-12-07T04:28:02;6.77;;;3.70;;
15655;SDS011;7928;43.614;1.456;2023-12-07T04:30:29;5.70;;;3.43;;
15655;SDS011;7928;43.614;1.456;2023-12-07T04:32:56;6.33;;;3.73;;
15655;SDS011;7928;43.614;1.456;2023-12-07T04:35:23;6.13;;;3.33;;
15655;SDS011;7928;43.614;1.456;2023-12-07T04:37:50;8.17;;;3.50;;
15655;SDS011;7928;43.614;1.456;2023-12-07T04:40:17;6.30;;;3.97;;
15655;SDS011;7928;43.614;1.456;2023-12-07T04:42:44;8.80;;;3.53;;
15655;SDS011;7928;43.614;1.456;2023-12-07T04:45:13;5.57;;;3.57;;
15655;SDS011;7928;43.614;1.456;2023-12-07T04:47:40;6.13;;;3.90;;
15655;SDS011;7928;43.614;1.456;2023-12-07T04:50:07;5.53;;;3.67;;
15655;SDS011;7928;43.614;1.456;2023-12-07T04:52:34;10.00;;;3.60;;
15655;SDS011;7928;43.614;1.456;2023-12-07T04:55:01;6.40;;;3.60;;
15655;SDS011;7928;43.614;1.456;2023-12-07T04:57:29;6.77;;;3.83;;
15655;SDS011;7928;43.614;1.456;2023-12-07T04:59:56;12.40;;;3.97;;
15655;SDS011;7928;43.614;1.456;2023-12-07T05:02:24;6.87;;;3.40;;
15655;SDS011;7928;43.614;1.456;2023-12-07T05:04:52;7.60;;;4.23;;
15655;SDS011;7928;43.614;1.456;2023-12-07T05:07:19;7.77;;;3.67;;
15655;SDS011;7928;43.614;1.456;2023-12-07T05:09:47;7.63;;;3.40;;
15655;SDS011;7928;43.614;1.456;2023-12-07T05:12:15;9.50;;;4.20;;
15655;SDS011;7928;43.614;1.456;2023-12-07T05:14:42;7.20;;;3.77;;
15655;SDS011;7928;43.614;1.456;2023-12-07T05:17:10;9.27;;;3.70;;
15655;SDS011;7928;43.614;1.456;2023-12-07T05:19:38;10.27;;;4.10;;
15655;SDS011;7928;43.614;1.456;2023-12-07T05:22:05;11.37;;;4.40;;
15655;SDS011;7928;43.614;1.456;2023-12-07T05:24:32;5.73;;;3.70;;
15655;SDS011;7928;43.614;1.456;2023-12-07T05:27:01;7.03;;;3.50;;
15655;SDS011;7928;43.614;1.456;2023-12-07T05:29:29;7.07;;;3.70;;
15655;SDS011;7928;43.614;1.456;2023-12-07T05:31:56;5.20;;;3.27;;
15655;SDS011;7928;43.614;1.456;2023-12-07T05:34:23;5.20;;;3.27;;
15655;SDS011;7928;43.614;1.456;2023-12-07T05:36:51;10.57;;;5.47;;
15655;SDS011;7928;43.614;1.456;2023-12-07T05:39:18;6.87;;;3.40;;
15655;SDS011;7928;43.614;1.456;2023-12-07T05:41:46;4.90;;;3.30;;
15655;SDS011;7928;43.614;1.456;2023-12-07T05:44:13;10.53;;;3.20;;
15655;SDS011;7928;43.614;1.456;2023-12-07T05:46:46;6.17;;;3.40;;
15655;SDS011;7928;43.614;1.456;2023-12-07T05:49:13;6.13;;;2.90;;
15655;SDS011;7928;43.614;1.456;2023-12-07T05:51:40;6.50;;;2.90;;
15655;SDS011;7928;43.614;1.456;2023-12-07T05:54:08;4.53;;;2.80;;
15655;SDS011;7928;43.614;1.456;2023-12-07T05:56:35;5.03;;;2.50;;
15655;SDS011;7928;43.614;1.456;2023-12-07T05:59:02;5.03;;;2.60;;
15655;SDS011;7928;43.614;1.456;2023-12-07T06:01:29;6.97;;;2.80;;
15655;SDS011;7928;43.614;1.456;2023-12-07T06:03:57;4.33;;;2.93;;
15655;SDS011;7928;43.614;1.456;2023-12-07T06:06:24;5.20;;;3.10;;
15655;SDS011;7928;43.614;1.456;2023-12-07T06:08:51;6.70;;;2.73;;
15655;SDS011;7928;43.614;1.456;2023-12-07T06:11:20;4.30;;;2.37;;
15655;SDS011;7928;43.614;1.456;2023-12-07T06:13:47;3.93;;;2.00;;
15655;SDS011;7928;43.614;1.456;2023-12-07T06:16:14;3.67;;;2.37;;
15655;SDS011;7928;43.614;1.456;2023-12-07T06:18:42;4.00;;;2.30;;
15655;SDS011;7928;43.614;1.456;2023-12-07T06:21:09;5.27;;;2.87;;
15655;SDS011;7928;43.614;1.456;2023-12-07T06:23:37;4.37;;;2.43;;
15655;SDS011;7928;43.614;1.456;2023-12-07T06:26:04;6.70;;;2.80;;
15655;SDS011;7928;43.614;1.456;2023-12-07T06:28:33;4.90;;;3.13;;
15655;SDS011;7928;43.614;1.456;2023-12-07T06:31:04;4.60;;;2.70;;
15655;SDS011;7928;43.614;1.456;2023-12-07T06:33:32;7.00;;;3.43;;
15655;SDS011;7928;43.614;1.456;2023-12-07T06:35:59;6.30;;;3.20;;
15655;SDS011;7928;43.614;1.456;2023-12-07T06:38:28;11.57;;;4.20;;
15655;SDS011;7928;43.614;1.456;2023-12-07T06:40:55;9.50;;;3.53;;
15655;SDS011;7928;43.614;1.456;2023-12-07T06:43:22;6.70;;;3.70;;
15655;SDS011;7928;43.614;1.456;2023-12-07T06:45:51;5.77;;;3.60;;
15655;SDS011;7928;43.614;1.456;2023-12-07T06:48:18;9.63;;;4.73;;
15655;SDS011;7928;43.614;1.456;2023-12-07T06:50:45;12.70;;;5.07;;
15655;SDS011;7928;43.614;1.456;2023-12-07T06:53:12;11.97;;;4.73;;
15655;SDS011;7928;43.614;1.456;2023-12-07T06:55:41;7.63;;;4.33;;
15655;SDS011;7928;43.614;1.456;2023-12-07T06:58:08;9.07;;;4.10;;
15655;SDS011;7928;43.614;1.456;2023-12-07T07:00:36;11.00;;;4.43;;
15655;SDS011;7928;43.614;1.456;2023-12-07T07:03:04;9.93;;;4.30;;
15655;SDS011;7928;43.614;1.456;2023-12-07T07:05:32;7.27;;;3.80;;
15655;SDS011;7928;43.614;1.456;2023-12-07T07:07:59;10.07;;;3.80;;
15655;SDS011;7928;43.614;1.456;2023-12-07T07:10:26;9.60;;;3.77;;
15655;SDS011;7928;43.614;1.456;2023-12-07T07:12:53;6.43;;;3.50;;
15655;SDS011;7928;43.614;1.456;2023-12-07T07:15:20;8.47;;;3.00;;
15655;SDS011;7928;43.614;1.456;2023-12-07T07:17:48;7.37;;;2.80;;
15655;SDS011;7928;43.614;1.456;2023-12-07T07:20:16;7.67;;;2.90;;
15655;SDS011;7928;43.614;1.456;2023-12-07T07:22:43;6.47;;;2.57;;
15655;SDS011;7928;43.614;1.456;2023-12-07T07:25:11;6.83;;;2.50;;
15655;SDS011;7928;43.614;1.456;2023-12-07T07:27:40;4.83;;;2.40;;
15655;SDS011;7928;43.614;1.456;2023-12-07T07:30:07;10.30;;;3.30;;
15655;SDS011;7928;43.614;1.456;2023-12-07T07:32:34;9.13;;;2.90;;
15655;SDS011;7928;43.614;1.456;2023-12-07T07:35:01;5.20;;;2.87;;
15655;SDS011;7928;43.614;1.456;2023-12-07T07:37:30;8.13;;;2.63;;
15655;SDS011;7928;43.614;1.456;2023-12-07T07:39:57;5.93;;;2.30;;
15655;SDS011;7928;43.614;1.456;2023-12-07T07:42:24;3.87;;;1.90;;
15655;SDS011;7928;43.614;1.456;2023-12-07T07:44:51;3.93;;;2.13;;
15655;SDS011;7928;43.614;1.456;2023-12-07T07:47:18;5.90;;;2.50;;
15655;SDS011;7928;43.614;1.456;2023-12-07T07:49:45;9.47;;;2.53;;
15655;SDS011;7928;43.614;1.456;2023-12-07T07:52:12;9.20;;;2.63;;
15655;SDS011;7928;43.614;1.456;2023-12-07T07:54:41;6.10;;;3.40;;
15655;SDS011;7928;43.614;1.456;2023-12-07T07:57:08;6.07;;;3.20;;
15655;SDS011;7928;43.614;1.456;2023-12-07T07:59:35;6.37;;;3.70;;
15655;SDS011;7928;43.614;1.456;2023-12-07T08:02:02;6.70;;;3.10;;
15655;SDS011;7928;43.614;1.456;2023-12-07T08:04:30;10.77;;;4.10;;
15655;SDS011;7928;43.614;1.456;2023-12-07T08:06:57;14.63;;;6.57;;
15655;SDS011;7928;43.614;1.456;2023-12-07T08:09:24;10.33;;;5.33;;
15655;SDS011;7928;43.614;1.456;2023-12-07T08:11:52;14.90;;;6.30;;
15655;SDS011;7928;43.614;1.456;2023-12-07T08:14:19;8.87;;;4.73;;
15655;SDS011;7928;43.614;1.456;2023-12-07T08:16:46;12.77;;;4.83;;
15655;SDS011;7928;43.614;1.456;2023-12-07T08:19:13;11.17;;;4.00;;
15655;SDS011;7928;43.614;1.456;2023-12-07T08:21:40;7.00;;;3.27;;
15655;SDS011;7928;43.614;1.456;2023-12-07T08:24:07;11.43;;;2.80;;
15655;SDS011;7928;43.614;1.456;2023-12-07T08:26:34;4.77;;;2.40;;
15655;SDS011;7928;43.614;1.456;2023-12-07T08:29:02;5.37;;;2.17;;
15655;SDS011;7928;43.614;1.456;2023-12-07T08:31:30;5.50;;;2.13;;
15655;SDS011;7928;43.614;1.456;2023-12-07T08:33:57;4.30;;;2.20;;
15655;SDS011;7928;43.614;1.456;2023-12-07T08:36:25;5.73;;;2.27;;
15655;SDS011;7928;43.614;1.456;2023-12-07T08:38:53;3.87;;;1.90;;
15655;SDS011;7928;43.614;1.456;2023-12-07T08:41:20;19.57;;;5.00;;
15655;SDS011;7928;43.614;1.456;2023-12-07T08:43:47;7.57;;;3.57;;
15655;SDS011;7928;43.614;1.456;2023-12-07T08:46:15;7.73;;;3.97;;
15655;SDS011;7928;43.614;1.456;2023-12-07T08:48:42;7.90;;;3.67;;
15655;SDS011;7928;43.614;1.456;2023-12-07T08:51:09;9.27;;;4.47;;
15655;SDS011;7928;43.614;1.456;2023-12-07T08:53:37;11.80;;;6.30;;
15655;SDS011;7928;43.614;1.456;2023-12-07T08:56:04;7.33;;;3.73;;
15655;SDS011;7928;43.614;1.456;2023-12-07T08:58:32;14.13;;;4.17;;
15655;SDS011;7928;43.614;1.456;2023-12-07T09:00:59;11.83;;;4.33;;
15655;SDS011;7928;43.614;1.456;2023-12-07T09:03:27;13.57;;;4.63;;
15655;SDS011;7928;43.614;1.456;2023-12-07T09:05:56;7.53;;;3.90;;
15655;SDS011;7928;43.614;1.456;2023-12-07T09:08:23;8.93;;;3.97;;
15655;SDS011;7928;43.614;1.456;2023-12-07T09:10:50;8.63;;;3.80;;
15655;SDS011;7928;43.614;1.456;2023-12-07T09:13:17;9.23;;;3.60;;
15655;SDS011;7928;43.614;1.456;2023-12-07T09:15:45;9.03;;;3.60;;
15655;SDS011;7928;43.614;1.456;2023-12-07T09:18:12;7.70;;;3.60;;
15655;SDS011;7928;43.614;1.456;2023-12-07T09:20:40;14.37;;;5.27;;
15655;SDS011;7928;43.614;1.456;2023-12-07T09:23:10;9.83;;;3.60;;
15655;SDS011;7928;43.614;1.456;2023-12-07T09:25:37;5.23;;;3.10;;
15655;SDS011;7928;43.614;1.456;2023-12-07T09:28:05;6.83;;;3.63;;
15655;SDS011;7928;43.614;1.456;2023-12-07T09:30:33;13.00;;;4.33;;
15655;SDS011;7928;43.614;1.456;2023-12-07T09:33:00;6.40;;;3.13;;
15655;SDS011;7928;43.614;1.456;2023-12-07T09:35:28;8.33;;;2.77;;
15655;SDS011;7928;43.614;1.456;2023-12-07T09:37:58;10.37;;;3.40;;
15655;SDS011;7928;43.614;1.456;2023-12-07T09:40:24;10.90;;;4.67;;
15655;SDS011;7928;43.614;1.456;2023-12-07T09:42:53;11.47;;;2.67;;
15655;SDS011;7928;43.614;1.456;2023-12-07T09:45:20;11.13;;;2.50;;
15655;SDS011;7928;43.614;1.456;2023-12-07T09:47:47;3.80;;;1.80;;
15655;SDS011;7928;43.614;1.456;2023-12-07T09:50:15;6.07;;;2.07;;
15655;SDS011;7928;43.614;1.456;2023-12-07T09:52:44;3.70;;;1.90;;
15655;SDS011;7928;43.614;1.456;2023-12-07T09:55:12;5.93;;;1.67;;
15655;SDS011;7928;43.614;1.456;2023-12-07T09:57:39;6.90;;;2.90;;
15655;SDS011;7928;43.614;1.456;2023-12-07T10:00:06;2.50;;;1.57;;
15655;SDS011;7928;43.614;1.456;2023-12-07T10:02:36;2.90;;;1.43;;
15655;SDS011;7928;43.614;1.456;2023-12-07T10:05:04;4.17;;;1.83;;
15655;SDS011;7928;43.614;1.456;2023-12-07T10:07:32;3.07;;;1.20;;
15655;SDS011;7928;43.614;1.456;2023-12-07T10:10:01;5.30;;;1.77;;
15655;SDS011;7928;43.614;1.456;2023-12-07T10:12:31;2.70;;;1.33;;
15655;SDS011;7928;43.614;1.456;2023-12-07T10:14:59;4.67;;;1.50;;
15655;SDS011;7928;43.614;1.456;2023-12-07T10:17:42;5.30;;;1.50;;
15655;SDS011;7928;43.614;1.456;2023-12-07T10:20:13;2.67;;;1.40;;
15655;SDS011;7928;43.614;1.456;2023-12-07T10:22:41;3.33;;;1.20;;
15655;SDS011;7928;43.614;1.456;2023-12-07T10:25:09;4.47;;;1.40;;
15655;SDS011;7928;43.614;1.456;2023-12-07T10:27:38;2.37;;;1.40;;
15655;SDS011;7928;43.614;1.456;2023-12-07T10:30:08;3.63;;;1.47;;
15655;SDS011;7928;43.614;1.456;2023-12-07T10:32:37;6.97;;;1.93;;
15655;SDS011;7928;43.614;1.456;2023-12-07T10:35:06;2.83;;;1.40;;
15655;SDS011;7928;43.614;1.456;2023-12-07T10:37:34;5.90;;;1.50;;
15655;SDS011;7928;43.614;1.456;2023-12-07T10:40:01;3.47;;;1.20;;
15655;SDS011;7928;43.614;1.456;2023-12-07T10:42:32;3.03;;;1.10;;
15655;SDS011;7928;43.614;1.456;2023-12-07T10:45:04;3.03;;;1.37;;
15655;SDS011;7928;43.614;1.456;2023-12-07T10:47:36;3.40;;;1.33;;
15655;SDS011;7928;43.614;1.456;2023-12-07T10:50:05;3.47;;;1.37;;
15655;SDS011;7928;43.614;1.456;2023-12-07T10:52:37;2.53;;;1.63;;
15655;SDS011;7928;43.614;1.456;2023-12-07T10:55:13;3.87;;;1.43;;
15655;SDS011;7928;43.614;1.456;2023-12-07T10:57:43;5.13;;;1.43;;
15655;SDS011;7928;43.614;1.456;2023-12-07T11:00:13;2.90;;;1.30;;
15655;SDS011;7928;43.614;1.456;2023-12-07T11:02:41;2.90;;;1.40;;
15655;SDS011;7928;43.614;1.456;2023-12-07T11:05:10;3.07;;;1.23;;
15655;SDS011;7928;43.614;1.456;2023-12-07T11:07:40;3.03;;;1.50;;
15655;SDS011;7928;43.614;1.456;2023-12-07T11:10:17;6.03;;;1.50;;
15655;SDS011;7928;43.614;1.456;2023-12-07T11:12:53;4.37;;;1.33;;
15655;SDS011;7928;43.614;1.456;2023-12-07T11:15:26;3.60;;;1.50;;
15655;SDS011;7928;43.614;1.456;2023-12-07T11:17:54;2.60;;;1.53;;
15655;SDS011;7928;43.614;1.456;2023-12-07T11:20:22;3.23;;;1.27;;
15655;SDS011;7928;43.614;1.456;2023-12-07T11:22:59;3.43;;;1.50;;
15655;SDS011;7928;43.614;1.456;2023-12-07T11:25:26;2.70;;;1.33;;
15655;SDS011;7928;43.614;1.456;2023-12-07T11:27:59;3.00;;;1.67;;
15655;SDS011;7928;43.614;1.456;2023-12-07T11:30:28;1.53;;;1.10;;
15655;SDS011;7928;43.614;1.456;2023-12-07T11:32:57;6.00;;;1.70;;
15655;SDS011;7928;43.614;1.456;2023-12-07T11:35:24;4.53;;;2.37;;
15655;SDS011;7928;43.614;1.456;2023-12-07T11:38:01;3.37;;;1.30;;
15655;SDS011;7928;43.614;1.456;2023-12-07T11:40:31;2.70;;;1.63;;
15655;SDS011;7928;43.614;1.456;2023-12-07T11:43:00;3.53;;;1.43;;
15655;SDS011;7928;43.614;1.456;2023-12-07T11:45:41;3.67;;;1.30;;
15655;SDS011;7928;43.614;1.456;2023-12-07T11:48:09;4.17;;;1.70;;
15655;SDS011;7928;43.614;1.456;2023-12-07T11:50:36;5.63;;;1.93;;
15655;SDS011;7928;43.614;1.456;2023-12-07T11:53:21;3.20;;;1.47;;
15655;SDS011;7928;43.614;1.456;2023-12-07T11:55:49;1.97;;;1.30;;
15655;SDS011;7928;43.614;1.456;2023-12-07T11:58:16;2.33;;;1.33;;
15655;SDS011;7928;43.614;1.456;2023-12-07T12:00:44;3.57;;;1.67;;
15655;SDS011;7928;43.614;1.456;2023-12-07T12:03:12;4.57;;;2.17;;
15655;SDS011;7928;43.614;1.456;2023-12-07T12:05:40;3.03;;;1.43;;
15655;SDS011;7928;43.614;1.456;2023-12-07T12:08:08;3.93;;;1.43;;
15655;SDS011;7928;43.614;1.456;2023-12-07T12:10:35;6.83;;;1.30;;
15655;SDS011;7928;43.614;1.456;2023-12-07T12:13:02;3.37;;;1.30;;
15655;SDS011;7928;43.614;1.456;2023-12-07T12:15:29;6.53;;;1.43;;
15655;SDS011;7928;43.614;1.456;2023-12-07T12:17:58;4.33;;;1.30;;
15655;SDS011;7928;43.614;1.456;2023-12-07T12:20:26;6.13;;;1.57;;
15655;SDS011;7928;43.614;1.456;2023-12-07T12:22:53;2.63;;;1.00;;
15655;SDS011;7928;43.614;1.456;2023-12-07T12:25:21;3.87;;;1.37;;
15655;SDS011;7928;43.614;1.456;2023-12-07T12:27:51;4.17;;;1.20;;
15655;SDS011;7928;43.614;1.456;2023-12-07T12:30:19;1.10;;;0.90;;
15655;SDS011;7928;43.614;1.456;2023-12-07T12:32:47;3.30;;;1.07;;
15655;SDS011;7928;43.614;1.456;2023-12-07T12:35:17;8.93;;;1.87;;
15655;SDS011;7928;43.614;1.456;2023-12-07T12:37:44;5.00;;;1.40;;
15655;SDS011;7928;43.614;1.456;2023-12-07T12:40:15;5.67;;;1.77;;
15655;SDS011;7928;43.614;1.456;2023-12-07T12:42:44;5.77;;;1.27;;
15655;SDS011;7928;43.614;1.456;2023-12-07T12:45:12;4.43;;;1.07;;
15655;SDS011;7928;43.614;1.456;2023-12-07T12:47:40;3.93;;;1.27;;
15655;SDS011;7928;43.614;1.456;2023-12-07T12:50:08;2.87;;;1.40;;
15655;SDS011;7928;43.614;1.456;2023-12-07T12:52:37;3.67;;;1.20;;
15655;SDS011;7928;43.614;1.456;2023-12-07T12:55:07;4.93;;;1.63;;
15655;SDS011;7928;43.614;1.456;2023-12-07T12:57:35;3.93;;;1.60;;
15655;SDS011;7928;43.614;1.456;2023-12-07T13:00:03;3.80;;;1.43;;
15655;SDS011;7928;43.614;1.456;2023-12-07T13:02:32;6.43;;;1.40;;
15655;SDS011;7928;43.614;1.456;2023-12-07T13:04:59;3.30;;;1.37;;
15655;SDS011;7928;43.614;1.456;2023-12-07T13:07:26;3.53;;;1.40;;
15655;SDS011;7928;43.614;1.456;2023-12-07T13:09:55;3.97;;;1.57;;
15655;SDS011;7928;43.614;1.456;2023-12-07T13:12:22;1.93;;;1.40;;
15655;SDS011;7928;43.614;1.456;2023-12-07T13:14:50;2.10;;;1.17;;
15655;SDS011;7928;43.614;1.456;2023-12-07T13:17:17;2.57;;;1.27;;
15655;SDS011;7928;43.614;1.456;2023-12-07T13:19:44;3.30;;;1.17;;
15655;SDS011;7928;43.614;1.456;2023-12-07T13:22:11;3.20;;;1.30;;
15655;SDS011;7928;43.614;1.456;2023-12-07T13:24:38;6.40;;;1.30;;
15655;SDS011;7928;43.614;1.456;2023-12-07T13:27:06;3.53;;;1.20;;
15655;SDS011;7928;43.614;1.456;2023-12-07T13:29:33;5.73;;;1.47;;
15655;SDS011;7928;43.614;1.456;2023-12-07T13:32:00;5.20;;;1.60;;
15655;SDS011;7928;43.614;1.456;2023-12-07T13:34:27;5.33;;;1.50;;
15655;SDS011;7928;43.614;1.456;2023-12-07T13:36:54;6.60;;;1.77;;
15655;SDS011;7928;43.614;1.456;2023-12-07T13:39:21;5.70;;;1.40;;
15655;SDS011;7928;43.614;1.456;2023-12-07T13:41:48;2.67;;;1.50;;
15655;SDS011;7928;43.614;1.456;2023-12-07T13:44:19;5.03;;;1.20;;
15655;SDS011;7928;43.614;1.456;2023-12-07T13:46:46;5.87;;;1.50;;
15655;SDS011;7928;43.614;1.456;2023-12-07T13:49:13;4.07;;;1.20;;
15655;SDS011;7928;43.614;1.456;2023-12-07T13:51:40;2.00;;;1.10;;
15655;SDS011;7928;43.614;1.456;2023-12-07T13:54:07;2.30;;;1.20;;
15655;SDS011;7928;43.614;1.456;2023-12-07T13:56:34;3.67;;;1.50;;
15655;SDS011;7928;43.614;1.456;2023-12-07T13:59:01;6.43;;;1.40;;
15655;SDS011;7928;43.614;1.456;2023-12-07T14:01:30;3.83;;;1.40;;
15655;SDS011;7928;43.614;1.456;2023-12-07T14:03:58;2.57;;;1.47;;
15655;SDS011;7928;43.614;1.456;2023-12-07T14:06:27;9.67;;;1.97;;
15655;SDS011;7928;43.614;1.456;2023-12-07T14:08:53;1.80;;;1.20;;
15655;SDS011;7928;43.614;1.456;2023-12-07T14:11:20;7.70;;;1.47;;
15655;SDS011;7928;43.614;1.456;2023-12-07T14:13:47;2.33;;;1.50;;
15655;SDS011;7928;43.614;1.456;2023-12-07T14:16:18;4.00;;;1.83;;
15655;SDS011;7928;43.614;1.456;2023-12-07T14:18:47;3.50;;;1.40;;
15655;SDS011;7928;43.614;1.456;2023-12-07T14:21:18;2.83;;;1.60;;
15655;SDS011;7928;43.614;1.456;2023-12-07T14:23:47;3.70;;;1.17;;
15655;SDS011;7928;43.614;1.456;2023-12-07T14:26:14;3.80;;;1.57;;
15655;SDS011;7928;43.614;1.456;2023-12-07T14:28:41;6.40;;;1.80;;
15655;SDS011;7928;43.614;1.456;2023-12-07T14:31:08;2.17;;;1.13;;
15655;SDS011;7928;43.614;1.456;2023-12-07T14:33:41;4.60;;;1.60;;
15655;SDS011;7928;43.614;1.456;2023-12-07T14:36:11;3.50;;;1.67;;
15655;SDS011;7928;43.614;1.456;2023-12-07T14:38:38;2.17;;;1.63;;
15655;SDS011;7928;43.614;1.456;2023-12-07T14:41:06;3.87;;;1.40;;
15655;SDS011;7928;43.614;1.456;2023-12-07T14:43:33;2.77;;;1.40;;
15655;SDS011;7928;43.614;1.456;2023-12-07T14:46:00;2.43;;;1.60;;
15655;SDS011;7928;43.614;1.456;2023-12-07T14:48:28;3.37;;;1.90;;
15655;SDS011;7928;43.614;1.456;2023-12-07T14:50:55;5.63;;;1.77;;
15655;SDS011;7928;43.614;1.456;2023-12-07T14:53:23;3.70;;;1.63;;
15655;SDS011;7928;43.614;1.456;2023-12-07T14:55:51;3.17;;;1.43;;
15655;SDS011;7928;43.614;1.456;2023-12-07T14:58:18;3.87;;;2.10;;
15655;SDS011;7928;43.614;1.456;2023-12-07T15:00:45;5.33;;;1.50;;